createdAt,value
2022-08-07T00:02:36.810Z,53.14
2022-08-07T00:07:19.305Z,53.43
2022-08-07T00:12:19.466Z,53.63
2022-08-07T00:17:19.340Z,53.38
2022-08-07T00:22:24.679Z,53.54
2022-08-07T00:27:19.360Z,53.62
2022-08-07T00:32:19.368Z,53.76
2022-08-07T00:37:19.336Z,53.32
2022-08-07T00:42:19.370Z,53.34
2022-08-07T00:48:08.329Z,53.71
2022-08-07T00:52:20.017Z,53.48
2022-08-07T00:57:19.438Z,54.14
2022-08-07T01:02:28.786Z,54.03
2022-08-07T01:07:19.323Z,54.10
2022-08-07T01:12:30.243Z,53.87
2022-08-07T01:17:19.393Z,54.00
2022-08-07T01:22:22.932Z,54.12
2022-08-07T01:27:20.084Z,54.35
2022-08-07T01:32:19.404Z,54.14
2022-08-07T01:37:19.340Z,53.82
2022-08-07T01:42:39.299Z,53.97
2022-08-07T01:48:21.064Z,54.04
2022-08-07T01:52:19.384Z,53.92
2022-08-07T01:57:24.280Z,54.18
2022-08-07T02:02:32.523Z,54.16
2022-08-07T02:07:19.373Z,54.36
2022-08-07T02:12:19.510Z,54.68
2022-08-07T02:17:24.849Z,54.17
2022-08-07T02:22:19.433Z,54.57
2022-08-07T02:27:19.375Z,54.13
2022-08-07T02:32:23.411Z,54.43
2022-08-07T02:42:19.416Z,54.00
2022-08-07T02:47:23.430Z,53.66
2022-08-07T02:52:21.500Z,53.74
2022-08-07T02:57:19.383Z,53.41
2022-08-07T03:02:19.477Z,53.40
2022-08-07T03:07:21.529Z,54.32
2022-08-07T03:12:22.345Z,54.32
2022-08-07T03:17:19.456Z,54.11
2022-08-07T03:22:19.450Z,54.11
2022-08-07T03:27:30.053Z,53.81
2022-08-07T03:32:19.459Z,53.87
2022-08-07T03:37:19.415Z,54.19
2022-08-07T03:42:19.972Z,54.25
2022-08-07T03:47:19.473Z,54.38
2022-08-07T03:52:22.584Z,54.88
2022-08-07T03:58:08.740Z,55.11
2022-08-07T04:02:19.469Z,55.21
2022-08-07T04:07:19.446Z,55.61
2022-08-07T04:12:25.207Z,55.83
2022-08-07T04:18:31.917Z,55.61
2022-08-07T04:22:19.466Z,55.96
2022-08-07T04:27:25.229Z,55.96
2022-08-07T04:32:34.129Z,55.53
2022-08-07T04:37:20.527Z,55.28
2022-08-07T04:42:19.493Z,55.66
2022-08-07T04:47:57.405Z,55.42
2022-08-07T04:52:19.514Z,54.96
2022-08-07T04:58:14.163Z,55.18
2022-08-07T05:02:19.512Z,54.83
2022-08-07T05:07:20.901Z,54.45
2022-08-07T05:12:26.560Z,54.86
2022-08-07T05:17:51.015Z,54.16
2022-08-07T05:22:27.640Z,54.22
2022-08-07T05:28:02.744Z,54.47
2022-08-07T05:32:19.553Z,53.69
2022-08-07T05:37:25.409Z,52.64
2022-08-07T05:42:33.894Z,52.64
2022-08-07T05:52:20.294Z,51.57
2022-08-07T05:57:19.498Z,51.33
2022-08-07T06:02:21.973Z,50.62
2022-08-07T06:07:32.994Z,50.94
2022-08-07T06:12:21.078Z,50.94
2022-08-07T06:17:19.502Z,46.76
2022-08-07T06:22:23.397Z,47.15
2022-08-07T06:27:43.760Z,47.45
2022-08-07T06:32:19.572Z,47.45
2022-08-07T06:37:20.470Z,48.22
2022-08-07T06:42:19.594Z,47.39
2022-08-07T06:47:19.527Z,46.84
2022-08-07T06:52:31.369Z,46.14
2022-08-07T06:57:19.513Z,46.55
2022-08-07T07:02:48.422Z,46.29
2022-08-07T07:07:59.717Z,45.97
2022-08-07T07:12:24.714Z,45.50
2022-08-07T07:17:19.533Z,45.27
2022-08-07T07:22:36.280Z,45.27
2022-08-07T07:27:19.534Z,45.02
2022-08-07T07:32:19.607Z,44.82
2022-08-07T07:37:45.367Z,44.11
2022-08-07T07:42:20.903Z,44.13
2022-08-07T07:47:23.827Z,44.31
2022-08-07T07:52:19.605Z,44.31
2022-08-07T07:57:19.551Z,37.59
2022-08-07T08:02:22.383Z,35.21
2022-08-07T08:07:20.178Z,35.21
2022-08-07T08:12:51.243Z,34.83
2022-08-07T08:17:57.846Z,35.91
2022-08-07T08:22:19.718Z,35.26
2022-08-07T08:27:19.559Z,35.04
2022-08-07T08:32:25.040Z,34.77
2022-08-07T08:37:59.384Z,34.53
2022-08-07T08:42:19.619Z,33.91
2022-08-07T08:47:19.642Z,33.69
2022-08-07T08:52:19.653Z,34.69
2022-08-07T08:57:19.595Z,36.53
2022-08-07T09:02:36.446Z,36.53
2022-08-07T09:07:27.213Z,34.29
2022-08-07T09:12:31.244Z,33.85
2022-08-07T09:17:19.595Z,33.85
2022-08-07T09:24:27.256Z,34.13
2022-08-07T09:27:19.650Z,33.10
2022-08-07T09:32:19.620Z,33.10
2022-08-07T09:37:19.657Z,31.59
2022-08-07T09:42:23.088Z,31.92
2022-08-07T09:47:55.117Z,31.92
2022-08-07T09:52:34.792Z,32.73
2022-08-07T09:57:19.695Z,32.99
2022-08-07T10:02:19.673Z,33.14
2022-08-07T10:07:39.770Z,32.05
2022-08-07T10:12:21.859Z,31.79
2022-08-07T10:17:19.669Z,32.25
2022-08-07T10:22:24.935Z,32.07
2022-08-07T10:27:19.645Z,33.46
2022-08-07T10:32:51.480Z,33.45
2022-08-07T10:37:19.772Z,33.45
2022-08-07T10:42:20.897Z,33.17
2022-08-07T10:47:24.125Z,33.17
2022-08-07T10:52:19.677Z,32.23
2022-08-07T10:57:33.924Z,32.31
2022-08-07T11:02:33.477Z,32.62
2022-08-07T11:07:56.100Z,32.58
2022-08-07T11:12:31.674Z,33.82
2022-08-07T11:17:23.508Z,34.39
2022-08-07T11:22:32.457Z,33.06
2022-08-07T11:27:20.716Z,32.99
2022-08-07T11:32:25.881Z,33.09
2022-08-07T11:37:19.737Z,33.63
2022-08-07T11:42:19.729Z,32.96
2022-08-07T11:47:19.683Z,32.72
2022-08-07T11:52:19.724Z,32.68
2022-08-07T11:57:19.706Z,32.87
2022-08-07T12:02:20.968Z,33.66
2022-08-07T12:07:39.279Z,32.69
2022-08-07T12:12:19.741Z,32.61
2022-08-07T12:17:33.599Z,32.86
2022-08-07T12:22:38.690Z,32.14
2022-08-07T12:27:27.931Z,31.96
2022-08-07T12:32:19.760Z,31.73
2022-08-07T12:37:23.363Z,31.21
2022-08-07T12:42:27.335Z,32.78
2022-08-07T12:47:21.793Z,32.38
2022-08-07T12:52:19.751Z,32.38
2022-08-07T12:57:19.774Z,32.55
2022-08-07T13:02:19.770Z,32.37
2022-08-07T13:08:13.005Z,32.66
2022-08-07T13:12:19.832Z,32.64
2022-08-07T13:17:21.346Z,32.72
2022-08-07T13:22:27.581Z,31.94
2022-08-07T13:27:20.463Z,31.42
2022-08-07T13:32:31.845Z,31.02
2022-08-07T13:37:20.741Z,32.56
2022-08-07T13:42:24.889Z,31.42
2022-08-07T13:47:25.270Z,31.82
2022-08-07T13:52:33.551Z,32.02
2022-08-07T13:57:24.283Z,32.30
2022-08-07T14:02:19.785Z,31.92
2022-08-07T14:07:19.806Z,31.92
2022-08-07T14:12:27.268Z,31.96
2022-08-07T14:18:12.688Z,31.72
2022-08-07T14:22:34.100Z,31.78
2022-08-07T14:28:10.308Z,31.72
2022-08-07T14:32:19.835Z,31.81
2022-08-07T14:37:23.725Z,31.32
2022-08-07T14:42:22.381Z,31.43
2022-08-07T14:47:19.789Z,31.54
2022-08-07T14:52:21.507Z,31.44
2022-08-07T14:57:19.939Z,31.34
2022-08-07T15:07:21.609Z,32.37
2022-08-07T15:12:25.865Z,31.73
2022-08-07T15:27:19.881Z,30.65
2022-08-07T15:32:39.965Z,30.65
2022-08-07T15:37:27.878Z,30.77
2022-08-07T15:47:19.809Z,31.33
2022-08-07T15:52:20.497Z,32.67
2022-08-07T15:57:39.132Z,32.67
2022-08-07T16:02:20.188Z,32.81
2022-08-07T16:08:33.270Z,36.96
2022-08-07T16:12:35.045Z,37.46
2022-08-07T16:18:02.003Z,37.46
2022-08-07T16:22:30.102Z,37.93
2022-08-07T16:27:20.885Z,38.07
2022-08-07T16:32:35.046Z,37.81
2022-08-07T16:38:05.326Z,37.67
2022-08-07T16:42:21.748Z,38.08
2022-08-07T16:52:51.707Z,37.82
2022-08-07T16:58:00.607Z,37.98
2022-08-07T17:02:50.872Z,38.01
2022-08-07T17:07:28.546Z,37.62
2022-08-07T17:12:34.167Z,37.62
2022-08-07T17:17:21.508Z,37.71
2022-08-07T17:22:36.664Z,37.74
2022-08-07T17:27:22.233Z,37.77
2022-08-07T17:32:30.938Z,37.88
2022-08-07T17:38:08.192Z,38.18
2022-08-07T17:42:20.041Z,38.12
2022-08-07T17:47:38.012Z,38.39
2022-08-07T17:52:19.961Z,38.88
2022-08-07T17:57:20.104Z,38.96
2022-08-07T18:02:23.266Z,39.22
2022-08-07T18:07:23.810Z,39.34
2022-08-07T18:12:30.280Z,39.45
2022-08-07T18:17:20.055Z,39.42
2022-08-07T18:22:20.123Z,39.47
2022-08-07T18:27:20.926Z,39.64
2022-08-07T18:32:20.093Z,39.90
2022-08-07T18:38:56.988Z,39.90
2022-08-07T18:42:20.180Z,40.42
2022-08-07T18:47:22.652Z,39.76
2022-08-07T18:52:38.173Z,38.58
2022-08-07T18:57:30.629Z,38.58
2022-08-07T19:02:33.432Z,38.84
2022-08-07T19:07:20.162Z,38.84
2022-08-07T19:12:20.145Z,38.52
2022-08-07T19:17:52.424Z,38.52
2022-08-07T19:22:30.779Z,37.45
2022-08-07T19:29:02.924Z,37.13
2022-08-07T19:32:26.457Z,37.32
2022-08-07T19:37:20.176Z,37.26
2022-08-07T19:42:24.980Z,37.62
2022-08-07T19:47:27.250Z,37.50
2022-08-07T19:52:20.217Z,37.54
2022-08-07T19:58:04.680Z,37.69
2022-08-07T20:02:21.071Z,37.74
2022-08-07T20:07:23.986Z,38.18
2022-08-07T20:12:32.186Z,38.33
2022-08-07T20:17:20.166Z,38.48
2022-08-07T20:22:28.971Z,38.63
2022-08-07T20:27:46.209Z,38.63
2022-08-07T20:32:23.179Z,38.57
2022-08-07T20:37:20.182Z,38.57
2022-08-07T20:42:20.156Z,38.85
2022-08-07T20:47:25.067Z,38.83
2022-08-07T20:52:20.960Z,38.83
2022-08-07T20:57:20.007Z,38.73
2022-08-07T21:02:27.700Z,39.71
2022-08-07T21:07:23.425Z,39.57
2022-08-07T21:12:28.528Z,39.79
2022-08-07T21:18:03.361Z,40.54
2022-08-07T21:22:20.052Z,40.85
2022-08-07T21:27:20.004Z,40.89
2022-08-07T21:32:47.635Z,41.76
2022-08-07T21:37:20.052Z,42.01
2022-08-07T21:42:41.827Z,42.01
2022-08-07T21:47:20.018Z,41.59
2022-08-07T21:52:33.204Z,41.28
2022-08-07T21:57:39.871Z,41.07
2022-08-07T22:02:20.142Z,41.07
2022-08-07T22:07:20.054Z,43.07
2022-08-07T22:12:20.086Z,43.30
2022-08-07T22:17:20.029Z,43.52
2022-08-07T22:22:27.796Z,43.44
2022-08-07T22:27:20.053Z,43.62
2022-08-07T22:32:33.489Z,44.28
2022-08-07T22:37:20.103Z,44.40
2022-08-07T22:42:25.588Z,46.54
2022-08-07T22:47:20.055Z,47.36
2022-08-07T22:52:40.074Z,46.68
2022-08-07T22:57:20.062Z,46.67
2022-08-07T23:02:20.095Z,46.54
2022-08-07T23:07:40.326Z,46.86
2022-08-07T23:12:20.917Z,46.36
2022-08-07T23:17:20.396Z,46.99
2022-08-07T23:22:20.106Z,47.52
2022-08-07T23:27:33.668Z,47.63
2022-08-07T23:34:20.332Z,48.18
2022-08-07T23:37:22.642Z,48.33
2022-08-07T23:42:21.948Z,48.22
2022-08-07T23:53:01.105Z,48.93
2022-08-07T23:57:20.091Z,49.39
